createdAt,value
2023-01-23T14:22:44.705Z,3.47
2023-01-23T14:25:17.815Z,3.47
2023-01-23T14:27:54.356Z,3.41
2023-01-23T14:30:29.285Z,3.34
2023-01-23T14:32:58.402Z,3.32
2023-01-23T14:35:29.900Z,3.32
2023-01-23T14:38:00.670Z,3.33
2023-01-23T14:40:35.148Z,3.37
2023-01-23T14:43:08.912Z,3.30
2023-01-23T14:45:37.541Z,3.29
2023-01-23T14:48:07.976Z,3.32
2023-01-23T14:50:36.297Z,3.30
2023-01-23T14:53:06.372Z,3.30
2023-01-23T14:55:37.495Z,3.35
2023-01-23T14:58:05.448Z,3.38
2023-01-23T15:00:34.395Z,3.36
2023-01-23T15:03:04.446Z,3.29
2023-01-23T15:05:33.018Z,3.22
2023-01-23T15:08:17.168Z,3.21
2023-01-23T15:10:49.176Z,3.22
2023-01-23T15:13:34.412Z,3.16
2023-01-23T15:16:04.193Z,3.10
2023-01-23T15:18:35.549Z,3.08
2023-01-23T15:21:08.483Z,3.05
2023-01-23T15:23:40.526Z,2.96
2023-01-23T15:26:15.229Z,2.90
2023-01-23T15:28:49.037Z,2.86
2023-01-23T15:31:27.630Z,2.85
2023-01-23T15:33:59.514Z,2.86
2023-01-23T15:36:31.728Z,2.85
2023-01-23T15:38:59.893Z,2.84
2023-01-23T15:41:45.072Z,2.79
2023-01-23T15:44:18.002Z,2.79
2023-01-23T15:46:45.676Z,2.82
2023-01-23T15:49:24.938Z,2.76
2023-01-23T15:51:55.176Z,2.68
2023-01-23T15:54:39.205Z,2.71
2023-01-23T15:57:08.189Z,2.72
2023-01-23T15:59:36.678Z,2.76
2023-01-23T16:02:12.861Z,2.76
2023-01-23T16:04:44.804Z,2.78
2023-01-23T16:07:22.013Z,2.74
2023-01-23T16:09:50.663Z,2.68
2023-01-23T16:12:21.265Z,2.69
2023-01-23T16:14:49.183Z,2.68
2023-01-23T16:17:18.073Z,2.64
2023-01-23T16:19:45.685Z,2.64
2023-01-23T16:22:18.215Z,2.58
2023-01-23T16:24:45.522Z,2.60
2023-01-23T16:27:21.481Z,2.56
2023-01-23T16:29:50.664Z,2.53
2023-01-23T16:32:17.690Z,2.43
2023-01-23T16:34:44.964Z,2.37
2023-01-23T16:37:17.996Z,2.33
2023-01-23T16:39:46.894Z,2.31
2023-01-23T16:42:25.163Z,2.23
2023-01-23T16:44:52.330Z,2.18
2023-01-23T16:47:19.517Z,2.16
2023-01-23T16:49:54.431Z,2.18
2023-01-23T16:52:25.334Z,2.16
2023-01-23T16:54:54.066Z,2.14
2023-01-23T16:57:21.644Z,2.13
2023-01-23T16:59:50.182Z,2.13
2023-01-23T17:02:22.112Z,2.10
2023-01-23T17:04:49.572Z,2.12
2023-01-23T17:07:19.014Z,2.16
2023-01-23T17:09:47.715Z,2.15
2023-01-23T17:12:21.598Z,2.13
2023-01-23T17:14:50.309Z,2.11
2023-01-23T17:17:25.606Z,2.15
2023-01-23T17:19:53.173Z,2.13
2023-01-23T17:22:30.698Z,2.13
2023-01-23T17:24:57.777Z,2.12
2023-01-23T17:27:24.968Z,2.10
2023-01-23T17:29:52.013Z,2.07
2023-01-23T17:32:35.975Z,2.09
2023-01-23T17:35:06.903Z,2.15
2023-01-23T17:37:35.379Z,2.14
2023-01-23T17:40:02.741Z,2.13
2023-01-23T17:42:30.161Z,2.10
2023-01-23T17:44:57.312Z,2.10
2023-01-23T17:47:24.457Z,2.04
2023-01-23T17:49:54.918Z,2.01
2023-01-23T17:52:22.148Z,2.04
2023-01-23T17:54:49.729Z,2.06
2023-01-23T17:57:16.986Z,2.09
2023-01-23T17:59:44.449Z,2.03
2023-01-23T18:02:26.288Z,1.96
2023-01-23T18:04:53.587Z,1.90
2023-01-23T18:07:22.032Z,1.90
2023-01-23T18:09:49.070Z,1.92
2023-01-23T18:12:27.454Z,1.92
2023-01-23T18:15:10.288Z,1.93
2023-01-23T18:17:55.383Z,1.93
2023-01-23T18:20:23.896Z,1.94
2023-01-23T18:22:51.661Z,1.93
2023-01-23T18:25:20.167Z,1.94
2023-01-23T18:27:53.413Z,2.00
2023-01-23T18:30:33.931Z,2.03
2023-01-23T18:33:10.473Z,2.05
2023-01-23T18:35:37.491Z,2.00
2023-01-23T18:38:19.413Z,1.97
2023-01-23T18:41:27.632Z,1.96
2023-01-23T18:44:01.921Z,1.95
2023-01-23T18:46:30.153Z,1.99
2023-01-23T18:48:57.446Z,2.02
2023-01-23T18:51:32.009Z,2.07
2023-01-23T18:54:12.036Z,2.08
2023-01-23T18:57:02.013Z,2.11
2023-01-23T18:59:44.519Z,2.11
2023-01-23T19:02:53.225Z,2.12
2023-01-23T19:05:35.381Z,2.12
2023-01-23T19:08:03.352Z,2.10
2023-01-23T19:10:48.131Z,2.10
2023-01-23T19:13:42.890Z,2.07
2023-01-23T19:16:31.652Z,2.10
2023-01-23T19:19:15.747Z,2.08
2023-01-23T19:21:46.232Z,2.02
2023-01-23T19:24:18.291Z,1.99
2023-01-23T19:26:45.939Z,1.98
2023-01-23T19:29:23.047Z,2.01
2023-01-23T19:32:06.903Z,2.02
2023-01-23T19:34:35.797Z,2.05
2023-01-23T19:37:03.815Z,2.07
2023-01-23T19:39:30.996Z,2.07
2023-01-23T19:41:58.770Z,2.07
2023-01-23T19:44:29.044Z,2.04
2023-01-23T19:46:56.357Z,2.04
2023-01-23T19:49:23.374Z,2.07
2023-01-23T19:51:50.544Z,2.08
2023-01-23T19:54:17.632Z,2.10
2023-01-23T19:56:44.740Z,2.07
2023-01-23T19:59:14.144Z,2.10
2023-01-23T20:01:46.693Z,2.08
2023-01-23T20:04:20.836Z,2.11
2023-01-23T20:06:52.959Z,2.14
2023-01-23T20:09:21.726Z,2.14
2023-01-23T20:11:49.288Z,2.16
2023-01-23T20:14:16.589Z,2.13
2023-01-23T20:16:43.903Z,2.11
2023-01-23T20:19:14.533Z,2.12
2023-01-23T20:21:45.944Z,2.07
2023-01-23T20:24:15.284Z,2.09
2023-01-23T20:26:43.610Z,2.11
2023-01-23T20:29:12.176Z,2.10
2023-01-23T20:31:39.332Z,2.08
2023-01-23T20:34:07.353Z,2.03
2023-01-23T20:36:34.852Z,2.00
2023-01-23T20:39:02.162Z,1.98
2023-01-23T20:41:29.277Z,2.01
2023-01-23T20:43:56.410Z,2.02
2023-01-23T20:46:23.570Z,1.99
2023-01-23T20:48:50.566Z,1.99
2023-01-23T20:51:17.782Z,1.95
2023-01-23T20:53:45.532Z,1.95
2023-01-23T20:56:19.023Z,1.96
2023-01-23T20:59:08.542Z,1.99
2023-01-23T21:01:56.695Z,1.99
2023-01-23T21:04:26.257Z,1.96
2023-01-23T21:06:53.366Z,1.97
2023-01-23T21:09:20.503Z,1.96
2023-01-23T21:11:50.020Z,2.00
2023-01-23T21:14:17.951Z,2.02
2023-01-23T21:16:45.283Z,2.01
2023-01-23T21:19:12.335Z,2.00
2023-01-23T21:21:39.559Z,2.00
2023-01-23T21:24:07.636Z,1.93
2023-01-23T21:26:37.666Z,1.87
2023-01-23T21:29:05.595Z,1.87
2023-01-23T21:31:35.739Z,1.91
2023-01-23T21:34:05.158Z,1.90
2023-01-23T21:36:32.423Z,1.88
2023-01-23T21:39:02.602Z,1.89
2023-01-23T21:41:29.944Z,1.89
2023-01-23T21:43:58.241Z,1.90
2023-01-23T21:46:25.679Z,1.86
2023-01-23T21:48:52.808Z,1.89
2023-01-23T21:51:22.106Z,1.91
2023-01-23T21:53:50.286Z,1.91
2023-01-23T21:56:20.512Z,1.89
2023-01-23T21:58:48.985Z,1.82
2023-01-23T22:01:32.699Z,1.83
2023-01-23T22:04:24.119Z,1.82
2023-01-23T22:06:55.447Z,1.85
2023-01-23T22:09:25.004Z,1.86
2023-01-23T22:11:52.508Z,1.92
2023-01-23T22:14:19.792Z,1.93
2023-01-23T22:16:49.479Z,1.92
2023-01-23T22:19:24.989Z,1.92
2023-01-23T22:21:57.317Z,1.93
2023-01-23T22:24:24.725Z,1.92
2023-01-23T22:26:52.349Z,1.92
2023-01-23T22:29:19.659Z,1.91
2023-01-23T22:31:47.084Z,1.87
2023-01-23T22:34:14.227Z,1.83
2023-01-23T22:36:41.378Z,1.78
2023-01-23T22:39:08.403Z,1.80
2023-01-23T22:41:36.278Z,1.81
2023-01-23T22:44:03.315Z,1.85
2023-01-23T22:46:32.279Z,1.84
2023-01-23T22:48:59.571Z,1.81
2023-01-23T22:51:28.287Z,1.83
2023-01-23T22:53:56.655Z,1.79
2023-01-23T22:56:25.313Z,1.77
2023-01-23T22:58:54.541Z,1.74
2023-01-23T23:01:27.377Z,1.78
2023-01-23T23:03:57.305Z,1.84
2023-01-23T23:06:25.518Z,1.80
2023-01-23T23:08:52.833Z,1.84
2023-01-23T23:11:22.868Z,1.83
2023-01-23T23:13:51.030Z,1.92
2023-01-23T23:16:22.176Z,1.90
2023-01-23T23:18:52.245Z,1.93
2023-01-23T23:21:23.448Z,1.94
2023-01-23T23:23:51.373Z,1.95
2023-01-23T23:26:18.756Z,1.98
2023-01-23T23:28:45.891Z,2.00
2023-01-23T23:31:12.916Z,1.99
2023-01-23T23:33:39.928Z,1.94
2023-01-23T23:36:07.898Z,1.91
2023-01-23T23:38:35.440Z,1.91
2023-01-23T23:41:07.956Z,1.91
2023-01-23T23:43:35.454Z,1.94
2023-01-23T23:46:05.136Z,1.93
2023-01-23T23:48:33.593Z,1.97
2023-01-23T23:51:02.736Z,1.95
2023-01-23T23:53:30.908Z,1.89
2023-01-23T23:55:57.973Z,1.87
2023-01-23T23:58:25.203Z,1.86
